createdAt,value
2023-03-10T00:02:49.497Z,7.82
2023-03-10T00:05:51.287Z,4.00
2023-03-10T00:08:53.265Z,5.10
2023-03-10T00:11:54.839Z,4.85
2023-03-10T00:14:56.642Z,4.88
2023-03-10T00:17:58.334Z,5.50
2023-03-10T00:21:00.387Z,5.47
2023-03-10T00:24:02.139Z,4.55
2023-03-10T00:27:03.817Z,5.03
2023-03-10T00:30:05.936Z,5.45
2023-03-10T00:33:07.725Z,5.57
2023-03-10T00:36:20.497Z,4.83
2023-03-10T00:39:22.571Z,4.95
2023-03-10T00:42:24.237Z,4.68
2023-03-10T00:45:26.236Z,3.92
2023-03-10T00:48:27.940Z,4.50
2023-03-10T00:51:29.527Z,5.70
2023-03-10T00:54:31.220Z,4.85
2023-03-10T00:57:35.315Z,4.40
2023-03-10T01:00:37.117Z,5.00
2023-03-10T01:03:38.737Z,4.85
2023-03-10T01:06:40.941Z,4.40
2023-03-10T01:09:42.555Z,5.90
2023-03-10T01:12:44.209Z,4.32
2023-03-10T01:15:48.658Z,5.20
2023-03-10T01:18:50.563Z,6.07
2023-03-10T01:21:52.203Z,4.57
2023-03-10T01:24:53.791Z,4.53
2023-03-10T01:27:55.590Z,4.13
2023-03-10T01:30:57.228Z,5.05
2023-03-10T01:33:58.985Z,3.63
2023-03-10T01:37:00.683Z,5.27
2023-03-10T01:40:05.232Z,4.35
2023-03-10T01:43:19.357Z,3.75
2023-03-10T01:46:32.088Z,5.53
2023-03-10T01:49:37.803Z,4.50
2023-03-10T01:52:40.753Z,3.47
2023-03-10T01:55:47.168Z,4.13
2023-03-10T01:58:51.089Z,4.25
2023-03-10T02:01:53.138Z,5.25
2023-03-10T02:04:55.826Z,4.43
2023-03-10T02:07:59.327Z,4.30
2023-03-10T02:11:01.609Z,5.03
2023-03-10T02:14:06.222Z,4.60
2023-03-10T02:17:13.713Z,3.75
2023-03-10T02:20:33.967Z,3.15
2023-03-10T02:23:58.944Z,3.40
2023-03-10T02:27:19.691Z,4.60
2023-03-10T02:30:32.726Z,3.53
2023-03-10T02:33:37.055Z,2.60
2023-03-10T02:36:38.719Z,3.00
2023-03-10T02:39:40.359Z,3.13
2023-03-10T02:42:42.083Z,3.97
2023-03-10T02:45:45.903Z,3.97
2023-03-10T02:48:47.583Z,3.70
2023-03-10T02:51:49.140Z,4.18
2023-03-10T02:54:50.930Z,3.53
2023-03-10T02:57:52.522Z,3.10
2023-03-10T03:00:54.216Z,5.90
2023-03-10T03:03:56.426Z,4.05
2023-03-10T03:06:58.076Z,7.13
2023-03-10T03:09:59.809Z,6.63
2023-03-10T03:13:01.589Z,6.30
2023-03-10T03:16:06.521Z,7.85
2023-03-10T03:19:08.353Z,5.63
2023-03-10T03:22:10.047Z,7.07
2023-03-10T03:25:15.034Z,6.30
2023-03-10T03:28:16.668Z,6.50
2023-03-10T03:31:21.074Z,8.20
2023-03-10T03:34:22.746Z,6.20
2023-03-10T03:37:24.378Z,7.53
2023-03-10T03:40:27.793Z,6.93
2023-03-10T03:43:29.713Z,6.93
2023-03-10T03:46:31.463Z,6.93
2023-03-10T03:49:35.590Z,7.57
2023-03-10T03:52:37.305Z,8.95
2023-03-10T03:55:38.919Z,9.37
2023-03-10T03:58:40.561Z,8.75
2023-03-10T04:01:42.229Z,7.28
2023-03-10T04:04:43.837Z,6.90
2023-03-10T04:07:46.166Z,8.20
2023-03-10T04:10:55.528Z,7.70
2023-03-10T04:13:57.139Z,10.20
2023-03-10T04:16:58.852Z,7.93
2023-03-10T04:20:07.155Z,8.02
2023-03-10T04:23:09.371Z,8.15
2023-03-10T04:26:11.584Z,8.30
2023-03-10T04:29:13.801Z,6.95
2023-03-10T04:32:15.451Z,8.50
2023-03-10T04:35:17.248Z,8.95
2023-03-10T04:38:19.545Z,10.02
2023-03-10T04:41:21.183Z,10.10
2023-03-10T04:44:30.902Z,12.35
2023-03-10T04:47:33.375Z,12.05
2023-03-10T04:50:35.066Z,13.88
2023-03-10T04:53:38.180Z,15.25
2023-03-10T04:56:39.922Z,13.17
2023-03-10T04:59:41.828Z,12.68
2023-03-10T05:02:43.594Z,13.98
2023-03-10T05:05:45.262Z,16.10
2023-03-10T05:08:47.215Z,16.50
2023-03-10T05:11:48.846Z,15.50
2023-03-10T05:14:50.503Z,14.75
2023-03-10T05:17:52.240Z,16.83
2023-03-10T05:20:55.055Z,13.88
2023-03-10T05:23:56.828Z,14.38
2023-03-10T05:26:58.528Z,17.80
2023-03-10T05:30:00.357Z,12.10
2023-03-10T05:33:02.563Z,15.68
2023-03-10T05:36:08.845Z,15.75
2023-03-10T05:39:11.144Z,12.88
2023-03-10T05:42:12.786Z,14.33
2023-03-10T05:45:15.185Z,20.95
2023-03-10T05:48:16.874Z,17.58
2023-03-10T05:51:18.656Z,15.30
2023-03-10T05:54:20.251Z,13.32
2023-03-10T05:57:21.993Z,12.60
2023-03-10T06:00:23.867Z,15.35
2023-03-10T06:03:25.836Z,18.08
2023-03-10T06:06:27.753Z,20.23
2023-03-10T06:09:31.539Z,17.63
2023-03-10T06:12:33.862Z,15.67
2023-03-10T06:15:35.513Z,10.85
2023-03-10T06:18:37.171Z,13.82
2023-03-10T06:21:38.913Z,10.32
2023-03-10T06:24:40.515Z,12.75
2023-03-10T06:27:42.150Z,10.37
2023-03-10T06:30:43.737Z,10.00
2023-03-10T06:33:45.646Z,12.77
2023-03-10T06:36:47.300Z,9.98
2023-03-10T06:39:49.010Z,10.85
2023-03-10T06:42:50.632Z,9.37
2023-03-10T06:45:52.376Z,9.95
2023-03-10T06:48:54.025Z,10.63
2023-03-10T06:51:55.658Z,10.48
2023-03-10T06:54:57.266Z,11.50
2023-03-10T06:57:58.969Z,11.57
2023-03-10T07:01:01.078Z,10.65
2023-03-10T07:04:02.869Z,11.98
2023-03-10T07:07:05.155Z,13.77
2023-03-10T07:10:08.363Z,11.25
2023-03-10T07:13:14.124Z,13.87
2023-03-10T07:16:18.789Z,12.23
2023-03-10T07:19:20.941Z,10.80
2023-03-10T07:22:22.915Z,13.15
2023-03-10T07:25:25.752Z,13.40
2023-03-10T07:28:28.370Z,14.67
2023-03-10T07:31:30.554Z,14.07
2023-03-10T07:34:32.466Z,10.63
2023-03-10T07:37:38.131Z,8.48
2023-03-10T07:40:40.876Z,8.98
2023-03-10T07:43:42.900Z,8.97
2023-03-10T07:46:44.639Z,8.00
2023-03-10T07:49:47.086Z,8.57
2023-03-10T07:52:49.077Z,7.65
2023-03-10T07:55:50.825Z,7.82
2023-03-10T07:58:55.049Z,7.60
2023-03-10T08:01:57.035Z,8.82
2023-03-10T08:04:58.829Z,7.75
2023-03-10T08:08:00.408Z,8.98
2023-03-10T08:11:09.749Z,8.02
2023-03-10T08:14:11.461Z,10.43
2023-03-10T08:17:13.250Z,10.35
2023-03-10T08:20:15.168Z,8.90
2023-03-10T08:23:16.897Z,8.32
2023-03-10T08:26:19.151Z,7.07
2023-03-10T08:29:21.001Z,8.37
2023-03-10T08:32:22.800Z,8.27
2023-03-10T08:35:24.502Z,7.03
2023-03-10T08:38:26.104Z,8.57
2023-03-10T08:41:29.123Z,7.25
2023-03-10T08:44:30.830Z,6.83
2023-03-10T08:47:32.552Z,7.43
2023-03-10T08:50:34.190Z,9.48
2023-03-10T08:53:38.131Z,9.07
2023-03-10T08:56:39.936Z,8.23
2023-03-10T08:59:41.563Z,7.27
2023-03-10T09:02:43.479Z,9.73
2023-03-10T09:05:45.266Z,10.40
2023-03-10T09:08:50.505Z,12.57
2023-03-10T09:11:52.220Z,9.82
2023-03-10T09:14:53.925Z,12.43
2023-03-10T09:17:55.806Z,13.75
2023-03-10T09:20:57.497Z,11.57
2023-03-10T09:23:59.456Z,8.80
2023-03-10T09:27:01.430Z,11.52
2023-03-10T09:30:05.313Z,8.60
2023-03-10T09:33:13.624Z,7.45
2023-03-10T09:36:16.456Z,8.27
2023-03-10T09:39:18.166Z,8.20
2023-03-10T09:42:38.349Z,11.45
2023-03-10T09:46:06.326Z,9.30
2023-03-10T09:49:17.950Z,11.02
2023-03-10T09:52:28.025Z,9.73
2023-03-10T09:55:47.434Z,10.93
2023-03-10T09:58:54.328Z,12.15
2023-03-10T10:01:56.915Z,12.23
2023-03-10T10:05:06.858Z,12.45
2023-03-10T10:08:54.913Z,11.95
2023-03-10T10:12:12.746Z,14.63
2023-03-10T10:15:18.488Z,14.32
2023-03-10T10:18:31.729Z,16.70
2023-03-10T10:22:01.882Z,12.98
2023-03-10T10:25:12.471Z,15.07
2023-03-10T10:28:41.861Z,14.55
2023-03-10T10:32:03.095Z,12.65
2023-03-10T10:35:17.126Z,14.13
2023-03-10T10:38:27.203Z,12.50
2023-03-10T10:41:31.888Z,11.52
2023-03-10T10:44:41.652Z,11.27
2023-03-10T10:47:49.847Z,16.73
2023-03-10T10:50:54.572Z,12.60
2023-03-10T10:54:02.553Z,12.25
2023-03-10T10:57:15.944Z,12.85
2023-03-10T11:00:25.607Z,17.05
2023-03-10T11:03:33.668Z,14.63
2023-03-10T11:06:38.023Z,15.67
2023-03-10T11:09:39.738Z,10.68
2023-03-10T11:13:06.468Z,17.05
2023-03-10T11:16:25.934Z,10.00
2023-03-10T11:19:42.916Z,13.20
2023-03-10T11:23:02.553Z,12.63
2023-03-10T11:26:26.973Z,10.70
2023-03-10T11:29:56.630Z,11.52
2023-03-10T11:33:20.878Z,8.27
2023-03-10T11:36:55.473Z,9.75
2023-03-10T11:40:19.786Z,11.47
2023-03-10T11:43:51.397Z,10.18
2023-03-10T11:47:04.861Z,10.30
2023-03-10T11:50:19.749Z,7.85
2023-03-10T11:53:53.174Z,10.70
2023-03-10T11:56:56.082Z,8.73
2023-03-10T12:00:01.364Z,11.82
2023-03-10T12:03:10.417Z,12.02
2023-03-10T12:06:18.179Z,14.32
2023-03-10T12:09:37.471Z,15.90
2023-03-10T12:12:44.673Z,11.70
2023-03-10T12:15:47.098Z,8.13
2023-03-10T12:18:48.938Z,11.73
2023-03-10T12:22:27.295Z,8.98
2023-03-10T12:25:33.157Z,10.73
2023-03-10T12:28:34.864Z,10.23
2023-03-10T12:31:39.234Z,8.60
2023-03-10T12:34:40.927Z,12.95
2023-03-10T12:37:42.570Z,9.88
2023-03-10T12:40:52.079Z,9.68
2023-03-10T12:44:03.033Z,9.83
2023-03-10T12:47:29.767Z,15.43
2023-03-10T12:50:46.759Z,13.50
2023-03-10T12:54:01.180Z,8.32
2023-03-10T12:57:37.431Z,8.60
2023-03-10T13:00:57.824Z,7.57
2023-03-10T13:04:04.848Z,10.43
2023-03-10T13:07:16.653Z,9.38
2023-03-10T13:10:25.265Z,8.35
2023-03-10T13:13:31.624Z,9.13
2023-03-10T13:16:33.956Z,8.60
2023-03-10T13:19:38.133Z,8.35
2023-03-10T13:22:40.663Z,10.13
2023-03-10T13:25:58.201Z,8.10
2023-03-10T13:29:03.051Z,8.63
2023-03-10T13:32:05.282Z,8.43
2023-03-10T13:35:25.730Z,6.68
2023-03-10T13:38:27.409Z,9.15
2023-03-10T13:41:33.636Z,8.15
2023-03-10T13:44:40.862Z,8.20
2023-03-10T13:47:43.465Z,7.13
2023-03-10T13:50:45.111Z,9.57
2023-03-10T13:53:48.212Z,10.20
2023-03-10T13:56:57.817Z,7.20
2023-03-10T14:00:00.392Z,6.43
2023-03-10T14:03:02.620Z,8.43
2023-03-10T14:06:13.660Z,7.72
2023-03-10T14:09:18.059Z,8.13
2023-03-10T14:12:38.445Z,6.95
2023-03-10T14:15:52.352Z,7.95
2023-03-10T14:18:54.003Z,9.50
2023-03-10T14:22:01.689Z,9.38
2023-03-10T14:25:23.607Z,7.78
2023-03-10T14:28:27.421Z,9.02
2023-03-10T14:31:29.776Z,7.38
2023-03-10T14:34:31.450Z,9.07
2023-03-10T14:37:33.052Z,8.52
2023-03-10T14:41:04.338Z,6.85
2023-03-10T14:44:06.246Z,7.97
2023-03-10T14:47:09.282Z,6.15
2023-03-10T14:50:15.784Z,5.70
2023-03-10T14:53:24.448Z,8.45
2023-03-10T14:56:26.214Z,7.93
2023-03-10T14:59:28.564Z,7.60
2023-03-10T15:02:30.705Z,10.90
2023-03-10T15:05:47.465Z,7.93
2023-03-10T15:08:50.178Z,8.68
2023-03-10T15:11:53.643Z,7.55
2023-03-10T15:14:55.378Z,10.77
2023-03-10T15:17:57.042Z,10.10
2023-03-10T15:21:03.318Z,9.50
2023-03-10T15:24:07.546Z,9.23
2023-03-10T15:27:12.279Z,11.07
2023-03-10T15:30:20.794Z,9.25
2023-03-10T15:33:22.433Z,9.38
2023-03-10T15:36:24.328Z,8.30
2023-03-10T15:39:31.869Z,11.07
2023-03-10T15:42:34.285Z,13.02
2023-03-10T15:45:43.785Z,12.05
2023-03-10T15:48:45.469Z,9.50
2023-03-10T15:51:47.136Z,9.53
2023-03-10T15:54:49.246Z,11.30
2023-03-10T15:57:51.344Z,14.02
2023-03-10T16:00:52.934Z,10.25
2023-03-10T16:03:54.825Z,10.15
2023-03-10T16:06:56.404Z,12.07
2023-03-10T16:09:58.099Z,10.73
2023-03-10T16:13:00.514Z,10.55
2023-03-10T16:16:06.834Z,12.10
2023-03-10T16:19:08.457Z,11.02
2023-03-10T16:22:10.445Z,11.47
2023-03-10T16:25:15.407Z,12.02
2023-03-10T16:28:17.023Z,9.45
2023-03-10T16:31:21.075Z,10.57
2023-03-10T16:34:22.770Z,12.00
2023-03-10T16:37:26.537Z,9.53
2023-03-10T16:40:28.092Z,9.38
2023-03-10T16:43:32.068Z,8.75
2023-03-10T16:46:34.266Z,10.35
2023-03-10T16:49:36.492Z,8.93
2023-03-10T16:52:42.690Z,9.90
2023-03-10T16:55:44.611Z,11.00
2023-03-10T16:58:46.882Z,9.95
2023-03-10T17:01:50.057Z,11.45
2023-03-10T17:04:51.679Z,9.40
2023-03-10T17:07:55.944Z,9.17
2023-03-10T17:10:58.019Z,9.88
2023-03-10T17:14:02.066Z,10.30
2023-03-10T17:17:05.852Z,10.27
2023-03-10T17:20:09.724Z,9.60
2023-03-10T17:23:11.748Z,8.60
2023-03-10T17:26:14.406Z,8.18
2023-03-10T17:29:16.171Z,8.48
2023-03-10T17:32:17.882Z,7.57
2023-03-10T17:35:19.732Z,9.82
2023-03-10T17:38:21.415Z,7.93
2023-03-10T17:41:23.734Z,8.55
2023-03-10T17:44:25.456Z,7.50
2023-03-10T17:47:27.386Z,7.15
2023-03-10T17:50:29.024Z,7.80
2023-03-10T17:53:30.893Z,8.53
2023-03-10T17:56:32.609Z,9.23
2023-03-10T17:59:37.416Z,8.02
2023-03-10T18:02:39.548Z,8.80
2023-03-10T18:05:44.751Z,12.95
2023-03-10T18:08:47.069Z,15.87
2023-03-10T18:11:49.340Z,28.65
2023-03-10T18:14:52.186Z,30.10
2023-03-10T18:17:53.828Z,19.80
2023-03-10T18:20:55.782Z,9.95
2023-03-10T18:23:57.591Z,8.07
2023-03-10T18:27:01.447Z,7.13
2023-03-10T18:30:04.553Z,7.20
2023-03-10T18:33:06.182Z,10.68
2023-03-10T18:36:09.683Z,10.30
2023-03-10T18:39:11.691Z,9.50
2023-03-10T18:42:13.376Z,6.97
2023-03-10T18:45:14.979Z,7.05
2023-03-10T18:48:17.170Z,8.45
2023-03-10T18:51:18.926Z,5.85
2023-03-10T18:54:20.758Z,6.60
2023-03-10T18:57:22.887Z,5.95
2023-03-10T19:00:24.869Z,6.90
2023-03-10T19:03:30.881Z,7.35
2023-03-10T19:06:34.021Z,9.52
2023-03-10T19:09:35.660Z,8.83
2023-03-10T19:12:37.253Z,8.05
2023-03-10T19:15:39.037Z,7.65
2023-03-10T19:18:40.701Z,12.90
2023-03-10T19:21:42.408Z,13.88
2023-03-10T19:24:44.253Z,11.67
2023-03-10T19:27:48.934Z,9.20
2023-03-10T19:30:50.604Z,9.38
2023-03-10T19:33:52.318Z,14.20
2023-03-10T19:36:54.119Z,12.38
2023-03-10T19:39:55.872Z,12.87
2023-03-10T19:42:57.996Z,11.93
2023-03-10T19:46:04.344Z,10.60
2023-03-10T19:49:06.948Z,10.57
2023-03-10T19:52:08.609Z,12.82
2023-03-10T19:55:19.482Z,13.73
2023-03-10T19:58:22.131Z,14.65
2023-03-10T20:01:26.216Z,11.88
2023-03-10T20:04:27.981Z,12.27
2023-03-10T20:07:29.651Z,10.40
2023-03-10T20:10:31.686Z,9.33
2023-03-10T20:13:35.963Z,11.02
2023-03-10T20:16:37.708Z,11.23
2023-03-10T20:19:40.942Z,11.13
2023-03-10T20:22:45.655Z,10.32
2023-03-10T20:25:47.439Z,12.73
2023-03-10T20:28:49.422Z,10.23
2023-03-10T20:31:51.069Z,10.00
2023-03-10T20:34:52.733Z,14.02
2023-03-10T20:37:54.468Z,13.52
2023-03-10T20:40:56.180Z,10.53
2023-03-10T20:43:57.961Z,9.20
2023-03-10T20:46:59.544Z,17.58
2023-03-10T20:50:03.717Z,14.07
2023-03-10T20:53:05.344Z,9.02
2023-03-10T20:56:11.085Z,9.47
2023-03-10T20:59:12.802Z,9.60
2023-03-10T21:02:16.701Z,10.30
2023-03-10T21:05:20.394Z,10.30
2023-03-10T21:08:22.042Z,11.32
2023-03-10T21:11:23.758Z,9.90
2023-03-10T21:14:25.512Z,11.82
2023-03-10T21:17:28.137Z,9.82
2023-03-10T21:20:29.779Z,7.00
2023-03-10T21:23:31.485Z,8.07
2023-03-10T21:26:33.785Z,7.73
2023-03-10T21:29:35.543Z,7.82
2023-03-10T21:32:37.928Z,7.97
2023-03-10T21:35:40.531Z,8.52
2023-03-10T21:38:42.502Z,7.35
2023-03-10T21:41:44.392Z,9.40
2023-03-10T21:44:47.214Z,8.25
2023-03-10T21:47:49.269Z,7.50
2023-03-10T21:50:51.037Z,7.93
2023-03-10T21:53:55.948Z,6.38
2023-03-10T21:56:59.599Z,6.20
2023-03-10T22:00:01.229Z,6.43
2023-03-10T22:03:05.024Z,6.47
2023-03-10T22:06:06.812Z,6.25
2023-03-10T22:09:08.428Z,6.75
2023-03-10T22:12:10.311Z,6.80
2023-03-10T22:15:18.775Z,8.65
2023-03-10T22:18:20.699Z,7.80
2023-03-10T22:21:22.400Z,5.90
2023-03-10T22:24:24.144Z,6.80
2023-03-10T22:27:25.703Z,6.60
2023-03-10T22:30:28.597Z,6.55
2023-03-10T22:33:30.249Z,5.57
2023-03-10T22:36:31.965Z,5.10
2023-03-10T22:39:33.615Z,5.82
2023-03-10T22:42:37.281Z,6.57
2023-03-10T22:45:38.898Z,7.32
2023-03-10T22:48:41.411Z,6.03
2023-03-10T22:51:43.232Z,5.20
2023-03-10T22:54:44.891Z,5.63
2023-03-10T22:57:46.622Z,6.53
2023-03-10T23:00:48.408Z,4.22
2023-03-10T23:03:50.143Z,4.40
2023-03-10T23:06:51.801Z,3.70
2023-03-10T23:09:53.438Z,3.65
2023-03-10T23:12:58.115Z,3.80
2023-03-10T23:16:00.149Z,3.42
2023-03-10T23:19:03.807Z,2.92
2023-03-10T23:22:05.458Z,1.63
2023-03-10T23:25:07.493Z,1.35
2023-03-10T23:28:10.977Z,1.60
2023-03-10T23:31:15.665Z,1.55
2023-03-10T23:34:17.501Z,1.48
2023-03-10T23:37:19.424Z,1.95
2023-03-10T23:40:23.214Z,1.30
2023-03-10T23:43:24.859Z,1.37
2023-03-10T23:46:26.467Z,1.20
2023-03-10T23:49:28.153Z,0.80
2023-03-10T23:52:30.704Z,1.42
2023-03-10T23:55:34.707Z,1.00
2023-03-10T23:58:36.670Z,2.43
